createdAt,value
2022-08-18T00:01:45.754Z,22.39
2022-08-18T00:03:55.902Z,22.35
2022-08-18T00:06:01.671Z,22.34
2022-08-18T00:08:06.057Z,22.32
2022-08-18T00:10:18.556Z,22.29
2022-08-18T00:12:23.500Z,22.20
2022-08-18T00:14:26.575Z,22.17
2022-08-18T00:16:30.941Z,22.14
2022-08-18T00:18:33.980Z,22.11
2022-08-18T00:20:37.037Z,22.08
2022-08-18T00:22:40.157Z,22.05
2022-08-18T00:24:48.393Z,22.04
2022-08-18T00:26:52.744Z,21.99
2022-08-18T00:28:55.771Z,22.00
2022-08-18T00:30:58.837Z,22.00
2022-08-18T00:33:03.215Z,22.01
2022-08-18T00:35:08.845Z,21.98
2022-08-18T00:37:11.906Z,21.98
2022-08-18T00:39:14.913Z,21.95
2022-08-18T00:41:18.049Z,21.95
2022-08-18T00:43:23.282Z,21.94
2022-08-18T00:45:29.471Z,21.93
2022-08-18T00:47:52.297Z,21.93
2022-08-18T00:49:57.087Z,21.91
2022-08-18T00:52:01.361Z,21.91
2022-08-18T00:54:07.453Z,21.88
2022-08-18T00:56:13.336Z,21.86
2022-08-18T00:58:21.231Z,21.81
2022-08-18T01:00:24.375Z,21.76
2022-08-18T01:02:30.773Z,21.76
2022-08-18T01:04:38.013Z,21.75
2022-08-18T01:06:49.541Z,21.73
2022-08-18T01:08:52.589Z,21.71
2022-08-18T01:10:56.140Z,21.70
2022-08-18T01:12:59.826Z,21.69
2022-08-18T01:15:03.277Z,21.70
2022-08-18T01:17:24.273Z,21.69
2022-08-18T01:19:45.638Z,21.70
2022-08-18T01:21:53.398Z,21.69
2022-08-18T01:23:58.917Z,21.69
2022-08-18T01:26:01.000Z,21.68
2022-08-18T01:28:04.309Z,21.64
2022-08-18T01:30:10.556Z,21.60
2022-08-18T01:32:17.084Z,21.61
2022-08-18T01:34:21.521Z,21.61
2022-08-18T01:36:24.613Z,21.62
2022-08-18T01:38:27.951Z,21.59
2022-08-18T01:41:24.064Z,21.54
2022-08-18T01:42:56.540Z,21.55
2022-08-18T01:44:59.557Z,21.53
2022-08-18T01:47:05.346Z,21.55
2022-08-18T01:49:09.131Z,21.54
2022-08-18T01:51:13.164Z,21.54
2022-08-18T01:53:17.236Z,21.53
2022-08-18T01:55:20.341Z,21.51
2022-08-18T01:57:25.526Z,21.52
2022-08-18T01:59:28.579Z,21.52
2022-08-18T02:01:37.018Z,21.52
2022-08-18T02:03:42.117Z,21.48
2022-08-18T02:05:49.033Z,21.46
2022-08-18T02:07:54.027Z,21.42
2022-08-18T02:09:58.243Z,21.42
2022-08-18T02:12:02.549Z,21.41
2022-08-18T02:14:07.258Z,21.43
2022-08-18T02:16:10.592Z,21.42
2022-08-18T02:18:25.992Z,21.42
2022-08-18T02:20:40.633Z,21.42
2022-08-18T02:22:45.750Z,21.41
2022-08-18T02:24:48.871Z,21.38
2022-08-18T02:26:51.860Z,21.37
2022-08-18T02:28:54.917Z,21.38
2022-08-18T02:30:59.359Z,21.34
2022-08-18T02:33:02.576Z,21.33
2022-08-18T02:35:09.515Z,21.33
2022-08-18T02:37:15.688Z,21.31
2022-08-18T02:39:18.821Z,21.31
2022-08-18T02:41:23.966Z,21.31
2022-08-18T02:43:27.500Z,21.30
2022-08-18T02:45:30.508Z,21.27
2022-08-18T02:47:35.209Z,21.25
2022-08-18T02:49:38.239Z,21.21
2022-08-18T02:51:41.217Z,21.20
2022-08-18T02:53:47.065Z,21.19
2022-08-18T02:55:50.480Z,21.21
2022-08-18T02:57:53.904Z,21.21
2022-08-18T02:59:57.120Z,21.23
2022-08-18T03:02:02.893Z,21.24
2022-08-18T03:04:08.458Z,21.24
2022-08-18T03:06:11.604Z,21.25
2022-08-18T03:08:14.600Z,21.23
2022-08-18T03:10:32.483Z,21.23
2022-08-18T03:12:37.401Z,21.22
2022-08-18T03:14:40.990Z,21.21
2022-08-18T03:16:53.939Z,21.20
2022-08-18T03:18:58.034Z,21.21
2022-08-18T03:21:07.803Z,21.20
2022-08-18T03:23:10.917Z,21.22
2022-08-18T03:25:13.903Z,21.23
2022-08-18T03:27:16.922Z,21.23
2022-08-18T03:29:20.498Z,21.23
2022-08-18T03:31:25.012Z,21.23
2022-08-18T03:33:31.273Z,21.22
2022-08-18T03:35:36.099Z,21.20
2022-08-18T03:37:40.566Z,21.21
2022-08-18T03:39:43.696Z,21.18
2022-08-18T03:41:59.265Z,21.16
2022-08-18T03:44:03.948Z,21.16
2022-08-18T03:46:12.125Z,21.15
2022-08-18T03:48:15.214Z,21.16
2022-08-18T03:50:19.561Z,21.14
2022-08-18T03:52:23.495Z,21.12
2022-08-18T03:54:28.244Z,21.10
2022-08-18T03:56:33.589Z,21.09
2022-08-18T03:58:36.849Z,21.10
2022-08-18T04:00:40.226Z,21.10
2022-08-18T04:02:43.463Z,21.11
2022-08-18T04:04:46.580Z,21.12
2022-08-18T04:06:57.142Z,21.11
2022-08-18T04:09:01.873Z,21.12
2022-08-18T04:11:06.517Z,21.12
2022-08-18T04:13:09.530Z,21.11
2022-08-18T04:15:12.779Z,21.10
2022-08-18T04:17:15.717Z,21.11
2022-08-18T04:19:27.447Z,21.10
2022-08-18T04:21:32.930Z,21.09
2022-08-18T04:23:43.472Z,21.08
2022-08-18T04:25:47.226Z,21.07
2022-08-18T04:27:52.012Z,21.04
2022-08-18T04:29:56.656Z,21.04
2022-08-18T04:32:04.696Z,21.04
2022-08-18T04:34:07.769Z,21.06
2022-08-18T04:36:12.421Z,21.05
2022-08-18T04:38:21.899Z,21.04
2022-08-18T04:40:27.150Z,21.04
2022-08-18T04:42:30.219Z,21.02
2022-08-18T04:44:34.779Z,21.02
2022-08-18T04:46:40.734Z,21.05
2022-08-18T04:48:43.883Z,21.04
2022-08-18T04:50:48.717Z,21.08
2022-08-18T04:53:09.163Z,21.08
2022-08-18T04:55:12.213Z,21.11
2022-08-18T04:57:17.013Z,21.14
2022-08-18T04:59:20.457Z,21.14
2022-08-18T05:01:27.183Z,21.08
2022-08-18T05:03:30.291Z,21.05
2022-08-18T05:05:33.308Z,21.08
2022-08-18T05:07:36.418Z,21.13
2022-08-18T05:09:41.674Z,21.20
2022-08-18T05:11:45.328Z,21.27
2022-08-18T05:13:48.471Z,21.35
2022-08-18T05:16:10.122Z,21.45
2022-08-18T05:18:16.689Z,21.51
2022-08-18T05:20:23.387Z,21.53
2022-08-18T05:22:28.816Z,21.57
2022-08-18T05:24:37.449Z,21.60
2022-08-18T05:26:41.551Z,21.60
2022-08-18T05:28:45.751Z,21.62
2022-08-18T05:30:48.863Z,21.63
2022-08-18T05:32:52.251Z,21.67
2022-08-18T05:34:56.748Z,21.77
2022-08-18T05:37:11.557Z,21.93
2022-08-18T05:39:20.995Z,22.03
2022-08-18T05:41:28.935Z,22.07
2022-08-18T05:43:33.325Z,22.11
2022-08-18T05:45:36.464Z,22.20
2022-08-18T05:47:39.620Z,22.20
2022-08-18T05:49:44.686Z,22.20
2022-08-18T05:51:50.751Z,22.25
2022-08-18T05:54:11.303Z,22.39
2022-08-18T05:56:32.066Z,22.55
2022-08-18T05:58:38.960Z,22.67
2022-08-18T06:00:43.042Z,22.85
2022-08-18T06:02:49.188Z,22.96
2022-08-18T06:04:53.757Z,23.12
2022-08-18T06:07:02.736Z,23.25
2022-08-18T06:09:12.167Z,23.36
2022-08-18T06:11:17.365Z,23.46
2022-08-18T06:13:26.085Z,23.46
2022-08-18T06:15:33.507Z,23.32
2022-08-18T06:18:02.369Z,23.20
2022-08-18T06:20:10.917Z,23.10
2022-08-18T06:22:25.812Z,23.04
2022-08-18T06:24:37.499Z,22.96
2022-08-18T06:26:45.490Z,22.90
2022-08-18T06:29:00.843Z,22.85
2022-08-18T06:31:06.569Z,22.82
2022-08-18T06:33:17.664Z,22.78
2022-08-18T06:35:28.170Z,22.77
2022-08-18T06:37:56.620Z,22.74
2022-08-18T06:39:59.851Z,22.76
2022-08-18T06:42:05.870Z,22.80
2022-08-18T06:44:11.382Z,22.82
2022-08-18T06:46:19.408Z,22.85
2022-08-18T06:48:26.918Z,22.89
2022-08-18T06:50:34.167Z,22.95
2022-08-18T06:52:40.159Z,23.00
2022-08-18T06:54:49.428Z,23.04
2022-08-18T06:56:55.951Z,23.05
2022-08-18T06:59:15.540Z,23.15
2022-08-18T07:01:19.061Z,23.27
2022-08-18T07:03:24.887Z,23.36
2022-08-18T07:05:29.478Z,23.45
2022-08-18T07:07:40.175Z,23.52
2022-08-18T07:09:45.406Z,23.48
2022-08-18T07:12:03.110Z,23.50
2022-08-18T07:14:17.071Z,23.52
2022-08-18T07:16:47.108Z,23.51
2022-08-18T07:18:48.143Z,23.58
2022-08-18T07:20:54.759Z,23.58
2022-08-18T07:23:00.279Z,23.55
2022-08-18T07:25:05.985Z,23.54
2022-08-18T07:27:11.034Z,23.53
2022-08-18T07:29:15.289Z,23.51
2022-08-18T07:31:37.663Z,23.47
2022-08-18T07:33:43.208Z,23.49
2022-08-18T07:35:49.197Z,23.54
2022-08-18T07:37:56.663Z,23.58
2022-08-18T07:40:06.375Z,23.65
2022-08-18T07:42:14.430Z,23.75
2022-08-18T07:44:44.284Z,23.89
2022-08-18T07:46:56.249Z,24.19
2022-08-18T07:48:59.739Z,24.46
2022-08-18T07:51:10.139Z,24.52
2022-08-18T07:53:19.706Z,24.40
2022-08-18T07:55:30.031Z,24.35
2022-08-18T07:57:42.632Z,24.30
2022-08-18T07:59:49.427Z,24.29
2022-08-18T08:01:57.178Z,24.25
2022-08-18T08:04:08.364Z,24.20
2022-08-18T08:06:20.337Z,24.11
2022-08-18T08:08:27.518Z,24.01
2022-08-18T08:10:35.509Z,23.90
2022-08-18T08:12:42.847Z,23.79
2022-08-18T08:14:47.948Z,23.67
2022-08-18T08:16:52.630Z,23.54
2022-08-18T08:19:02.325Z,23.42
2022-08-18T08:21:17.677Z,23.34
2022-08-18T08:23:27.442Z,23.22
2022-08-18T08:25:46.323Z,23.15
2022-08-18T08:28:00.378Z,23.11
2022-08-18T08:30:06.912Z,23.11
2022-08-18T08:32:13.695Z,23.12
2022-08-18T08:34:21.709Z,23.14
2022-08-18T08:36:29.274Z,23.15
2022-08-18T08:38:44.450Z,23.15
2022-08-18T08:40:53.760Z,23.11
2022-08-18T08:43:01.566Z,23.06
2022-08-18T08:45:08.993Z,23.04
2022-08-18T08:47:16.980Z,23.02
2022-08-18T08:49:33.781Z,23.01
2022-08-18T08:51:49.535Z,22.97
2022-08-18T08:54:03.590Z,22.95
2022-08-18T08:56:30.498Z,22.96
2022-08-18T08:58:41.744Z,22.95
2022-08-18T09:01:02.511Z,22.90
2022-08-18T09:03:31.491Z,22.95
2022-08-18T09:05:42.539Z,23.01
2022-08-18T09:08:03.149Z,23.10
2022-08-18T09:10:41.947Z,23.15
2022-08-18T09:13:03.765Z,23.15
2022-08-18T09:15:22.136Z,23.20
2022-08-18T09:17:42.531Z,23.27
2022-08-18T09:19:58.707Z,23.33
2022-08-18T09:22:07.973Z,23.40
2022-08-18T09:24:22.079Z,23.48
2022-08-18T09:26:40.834Z,23.59
2022-08-18T09:28:59.745Z,23.75
2022-08-18T09:31:20.003Z,23.93
2022-08-18T09:33:29.533Z,24.00
2022-08-18T09:36:10.244Z,24.06
2022-08-18T09:38:35.074Z,24.13
2022-08-18T09:41:10.752Z,24.21
2022-08-18T09:43:20.100Z,24.27
2022-08-18T09:45:55.401Z,24.43
2022-08-18T09:48:03.331Z,24.64
2022-08-18T09:50:34.091Z,24.88
2022-08-18T09:52:57.853Z,24.94
2022-08-18T09:55:02.955Z,25.06
2022-08-18T09:57:19.611Z,25.49
2022-08-18T09:59:59.025Z,25.83
2022-08-18T10:02:06.283Z,25.92
2022-08-18T10:04:32.177Z,25.75
2022-08-18T10:06:38.448Z,25.76
2022-08-18T10:09:26.717Z,25.93
2022-08-18T10:11:41.147Z,26.19
2022-08-18T10:13:51.078Z,26.24
2022-08-18T10:18:50.053Z,26.02
2022-08-18T10:21:01.820Z,26.13
2022-08-18T10:25:37.043Z,26.03
2022-08-18T10:27:49.788Z,26.09
2022-08-18T10:29:54.905Z,26.29
2022-08-18T10:32:23.004Z,26.49
2022-08-18T10:34:52.140Z,26.72
2022-08-18T10:36:59.096Z,26.79
2022-08-18T10:39:05.948Z,26.64
2022-08-18T10:41:15.734Z,26.64
2022-08-18T10:43:45.832Z,26.61
2022-08-18T10:45:59.373Z,26.60
2022-08-18T10:48:17.359Z,26.33
2022-08-18T10:50:24.331Z,26.27
2022-08-18T10:52:51.310Z,26.46
2022-08-18T10:55:21.605Z,26.70
2022-08-18T10:57:34.461Z,26.94
2022-08-18T10:59:50.523Z,27.16
2022-08-18T11:02:03.583Z,27.28
2022-08-18T11:04:14.089Z,27.36
2022-08-18T11:06:23.474Z,27.45
2022-08-18T11:08:26.642Z,27.49
2022-08-18T11:10:57.692Z,27.58
2022-08-18T11:18:10.413Z,27.81
2022-08-18T11:20:17.906Z,27.87
2022-08-18T11:22:31.757Z,27.88
2022-08-18T11:24:37.823Z,27.83
2022-08-18T11:26:44.033Z,27.85
2022-08-18T11:28:56.111Z,27.85
2022-08-18T11:31:00.648Z,27.76
2022-08-18T11:33:04.687Z,27.73
2022-08-18T11:35:13.295Z,27.55
2022-08-18T11:37:26.997Z,27.32
2022-08-18T11:39:38.354Z,27.28
2022-08-18T11:41:48.582Z,27.28
2022-08-18T11:43:56.927Z,27.32
2022-08-18T11:46:04.462Z,27.36
2022-08-18T11:48:23.776Z,27.51
2022-08-18T11:50:31.694Z,27.56
2022-08-18T11:52:49.536Z,27.47
2022-08-18T11:55:02.105Z,27.35
2022-08-18T11:57:46.435Z,27.42
2022-08-18T11:59:54.902Z,27.58
2022-08-18T12:02:03.842Z,27.72
2022-08-18T12:04:12.093Z,27.73
2022-08-18T12:06:29.847Z,27.68
2022-08-18T12:11:27.033Z,27.52
2022-08-18T12:13:28.830Z,27.69
2022-08-18T12:15:44.018Z,27.78
2022-08-18T12:17:52.842Z,27.90
2022-08-18T12:19:58.026Z,27.88
2022-08-18T12:22:11.675Z,27.91
2022-08-18T12:24:26.047Z,27.91
2022-08-18T12:26:38.662Z,28.02
2022-08-18T12:28:46.334Z,28.04
2022-08-18T12:30:56.215Z,28.10
2022-08-18T12:33:05.399Z,28.14
2022-08-18T12:35:11.335Z,28.09
2022-08-18T12:37:57.746Z,27.98
2022-08-18T12:39:43.085Z,28.13
2022-08-18T12:41:47.603Z,28.24
2022-08-18T12:43:58.465Z,28.31
2022-08-18T12:46:02.788Z,28.23
2022-08-18T12:48:07.122Z,28.22
2022-08-18T12:50:11.444Z,28.15
2022-08-18T12:52:15.490Z,27.96
2022-08-18T12:54:20.507Z,27.90
2022-08-18T12:56:27.205Z,27.83
2022-08-18T12:58:30.870Z,27.65
2022-08-18T13:00:40.892Z,27.59
2022-08-18T13:02:44.151Z,27.51
2022-08-18T13:04:47.585Z,27.43
2022-08-18T13:06:59.852Z,27.49
2022-08-18T13:09:16.109Z,27.51
2022-08-18T13:11:23.688Z,27.56
2022-08-18T13:13:29.497Z,27.59
2022-08-18T13:15:33.417Z,27.60
2022-08-18T13:17:36.891Z,27.60
2022-08-18T13:19:44.668Z,27.54
2022-08-18T13:21:47.842Z,27.55
2022-08-18T13:23:52.727Z,27.54
2022-08-18T13:26:01.598Z,27.65
2022-08-18T13:28:05.524Z,27.80
2022-08-18T13:30:29.590Z,27.86
2022-08-18T13:32:47.015Z,27.87
2022-08-18T13:34:50.487Z,27.99
2022-08-18T13:36:57.518Z,28.10
2022-08-18T13:39:01.328Z,28.23
2022-08-18T13:41:06.416Z,28.29
2022-08-18T13:43:10.487Z,28.38
2022-08-18T13:45:24.910Z,28.50
2022-08-18T13:47:31.180Z,28.60
2022-08-18T13:49:34.278Z,28.56
2022-08-18T13:51:38.953Z,28.43
2022-08-18T13:53:57.538Z,28.49
2022-08-18T13:56:09.793Z,28.52
2022-08-18T13:58:20.231Z,28.48
2022-08-18T14:00:30.777Z,28.40
2022-08-18T14:02:34.361Z,28.34
2022-08-18T14:04:38.553Z,28.36
2022-08-18T14:06:46.963Z,28.22
2022-08-18T14:08:59.048Z,28.12
2022-08-18T14:11:03.376Z,28.12
2022-08-18T14:13:20.006Z,28.19
2022-08-18T14:15:25.597Z,28.22
2022-08-18T14:17:30.163Z,28.29
2022-08-18T14:19:50.996Z,28.26
2022-08-18T14:22:12.184Z,28.22
2022-08-18T14:24:32.907Z,28.24
2022-08-18T14:26:50.328Z,28.22
2022-08-18T14:28:53.725Z,28.26
2022-08-18T14:30:59.335Z,28.28
2022-08-18T14:33:05.234Z,28.28
2022-08-18T14:35:33.506Z,28.23
2022-08-18T14:37:35.244Z,28.31
2022-08-18T14:39:38.420Z,28.40
2022-08-18T14:41:54.590Z,28.48
2022-08-18T14:44:12.225Z,28.55
2022-08-18T14:48:27.408Z,28.74
2022-08-18T14:50:30.562Z,28.82
2022-08-18T14:52:33.591Z,28.94
2022-08-18T14:54:36.922Z,29.05
2022-08-18T14:56:40.172Z,29.10
2022-08-18T14:58:45.009Z,29.06
2022-08-18T15:00:54.220Z,29.07
2022-08-18T15:03:01.112Z,29.07
2022-08-18T15:05:19.240Z,29.02
2022-08-18T15:07:23.898Z,28.95
2022-08-18T15:09:27.688Z,28.90
2022-08-18T15:11:31.883Z,28.88
2022-08-18T15:13:35.987Z,28.84
2022-08-18T15:15:50.566Z,28.78
2022-08-18T15:17:54.478Z,28.73
2022-08-18T15:20:01.697Z,28.64
2022-08-18T15:22:22.423Z,28.60
2022-08-18T15:24:43.201Z,28.53
2022-08-18T15:26:47.902Z,28.45
2022-08-18T15:28:55.013Z,28.39
2022-08-18T15:31:49.669Z,28.37
2022-08-18T15:33:31.609Z,28.33
2022-08-18T15:35:44.269Z,28.28
2022-08-18T15:37:51.190Z,28.26
2022-08-18T15:40:03.576Z,28.19
2022-08-18T15:42:11.711Z,28.17
2022-08-18T15:44:17.958Z,28.17
2022-08-18T15:46:21.116Z,28.21
2022-08-18T15:48:26.666Z,28.21
2022-08-18T15:50:31.053Z,28.23
2022-08-18T15:52:36.221Z,28.25
2022-08-18T15:54:44.290Z,28.26
2022-08-18T15:56:57.851Z,28.29
2022-08-18T15:59:07.702Z,28.30
2022-08-18T16:01:20.676Z,28.25
2022-08-18T16:03:24.496Z,28.21
2022-08-18T16:05:31.219Z,28.21
2022-08-18T16:07:41.087Z,28.22
2022-08-18T16:09:47.986Z,28.18
2022-08-18T16:11:51.117Z,28.19
2022-08-18T16:13:54.173Z,28.15
2022-08-18T16:15:59.104Z,28.15
2022-08-18T16:18:02.654Z,28.16
2022-08-18T16:20:08.052Z,28.14
2022-08-18T16:22:11.242Z,28.06
2022-08-18T16:24:18.272Z,28.06
2022-08-18T16:26:22.518Z,27.98
2022-08-18T16:28:34.710Z,27.96
2022-08-18T16:30:38.348Z,27.94
2022-08-18T16:32:41.495Z,27.91
2022-08-18T16:34:44.669Z,27.88
2022-08-18T16:36:47.658Z,27.88
2022-08-18T16:38:53.322Z,27.86
2022-08-18T16:40:58.196Z,27.85
2022-08-18T16:43:01.359Z,27.81
2022-08-18T16:45:06.003Z,27.73
2022-08-18T16:47:09.454Z,27.70
2022-08-18T16:49:12.479Z,27.59
2022-08-18T16:51:17.604Z,27.50
2022-08-18T16:53:20.633Z,27.48
2022-08-18T16:55:23.900Z,27.46
2022-08-18T16:57:53.454Z,27.45
2022-08-18T17:00:12.225Z,27.43
2022-08-18T17:02:38.551Z,27.45
2022-08-18T17:04:41.628Z,27.44
2022-08-18T17:06:47.240Z,27.44
2022-08-18T17:08:51.190Z,27.43
2022-08-18T17:10:54.586Z,27.43
2022-08-18T17:12:59.976Z,27.44
2022-08-18T17:15:10.258Z,27.40
2022-08-18T17:17:13.520Z,27.39
2022-08-18T17:19:16.602Z,27.34
2022-08-18T17:21:22.243Z,27.32
2022-08-18T17:23:25.372Z,27.26
2022-08-18T17:25:28.660Z,27.22
2022-08-18T17:27:37.553Z,27.23
2022-08-18T17:29:48.211Z,27.22
2022-08-18T17:31:55.357Z,27.21
2022-08-18T17:34:06.369Z,27.17
2022-08-18T17:36:15.463Z,27.16
2022-08-18T17:38:27.001Z,27.13
2022-08-18T17:40:32.770Z,27.09
2022-08-18T17:42:40.094Z,27.06
2022-08-18T17:44:52.242Z,27.02
2022-08-18T17:46:59.080Z,27.01
2022-08-18T17:49:05.199Z,27.00
2022-08-18T17:51:35.694Z,26.95
2022-08-18T17:53:38.722Z,26.92
2022-08-18T17:55:45.455Z,26.90
2022-08-18T17:57:58.687Z,26.84
2022-08-18T18:00:09.672Z,26.73
2022-08-18T18:02:29.305Z,26.67
2022-08-18T18:04:33.472Z,26.63
2022-08-18T18:06:39.557Z,26.60
2022-08-18T18:08:55.144Z,26.55
2022-08-18T18:11:11.049Z,26.45
2022-08-18T18:13:23.675Z,26.37
2022-08-18T18:15:32.557Z,26.33
2022-08-18T18:17:38.384Z,26.26
2022-08-18T18:19:42.500Z,26.16
2022-08-18T18:21:55.342Z,26.08
2022-08-18T18:24:16.136Z,26.01
2022-08-18T18:26:28.321Z,25.97
2022-08-18T18:28:35.349Z,25.94
2022-08-18T18:30:39.776Z,25.90
2022-08-18T18:32:59.384Z,25.87
2022-08-18T18:35:15.115Z,25.74
2022-08-18T18:37:26.325Z,25.68
2022-08-18T18:39:33.791Z,25.68
2022-08-18T18:41:40.086Z,25.65
2022-08-18T18:43:46.579Z,25.61
2022-08-18T18:46:23.271Z,25.54
2022-08-18T18:48:48.300Z,25.46
2022-08-18T18:50:56.249Z,25.37
2022-08-18T18:53:11.232Z,25.29
2022-08-18T18:55:16.924Z,25.17
2022-08-18T18:57:31.925Z,25.17
2022-08-18T18:59:45.327Z,25.13
2022-08-18T19:01:55.576Z,25.13
2022-08-18T19:04:06.666Z,25.04
2022-08-18T19:06:16.611Z,24.95
2022-08-18T19:08:28.564Z,24.89
2022-08-18T19:10:39.113Z,24.86
2022-08-18T19:12:47.128Z,24.87
2022-08-18T19:15:00.318Z,24.82
2022-08-18T19:17:14.275Z,24.83
2022-08-18T19:19:37.325Z,24.83
2022-08-18T19:22:04.463Z,24.84
2022-08-18T19:24:10.741Z,24.84
2022-08-18T19:26:18.533Z,24.81
2022-08-18T19:28:30.127Z,24.77
2022-08-18T19:30:34.463Z,24.78
2022-08-18T19:32:44.255Z,24.74
2022-08-18T19:34:52.459Z,24.70
2022-08-18T19:37:02.450Z,24.68
2022-08-18T19:39:12.484Z,24.69
2022-08-18T19:41:19.987Z,24.61
2022-08-18T19:43:43.247Z,24.63
2022-08-18T19:45:49.882Z,24.62
2022-08-18T19:47:58.527Z,24.63
2022-08-18T19:50:07.220Z,24.61
2022-08-18T19:52:45.336Z,24.64
2022-08-18T19:54:54.569Z,24.67
2022-08-18T19:57:09.414Z,24.68
2022-08-18T19:59:34.066Z,24.72
2022-08-18T20:01:46.654Z,24.75
2022-08-18T20:04:03.701Z,24.74
2022-08-18T20:06:35.074Z,24.73
2022-08-18T20:09:03.867Z,24.76
2022-08-18T20:11:20.880Z,24.79
2022-08-18T20:13:45.742Z,24.80
2022-08-18T20:16:44.302Z,24.76
2022-08-18T20:18:49.946Z,24.73
2022-08-18T20:21:26.178Z,24.75
2022-08-18T20:23:34.263Z,24.74
2022-08-18T20:25:43.697Z,24.75
2022-08-18T20:27:50.723Z,24.77
2022-08-18T20:30:17.532Z,24.74
2022-08-18T20:32:23.467Z,24.73
2022-08-18T20:34:27.926Z,24.74
2022-08-18T20:36:36.585Z,24.73
2022-08-18T20:38:41.671Z,24.74
2022-08-18T20:40:47.808Z,24.73
2022-08-18T20:42:56.267Z,24.74
2022-08-18T20:45:14.754Z,24.71
2022-08-18T20:47:36.303Z,24.73
2022-08-18T20:49:48.567Z,24.72
2022-08-18T20:51:57.909Z,24.72
2022-08-18T20:54:07.082Z,24.71
2022-08-18T20:56:32.561Z,24.66
2022-08-18T20:58:57.866Z,24.64
2022-08-18T21:01:01.885Z,24.62
2022-08-18T21:03:09.040Z,24.61
2022-08-18T21:05:16.661Z,24.58
2022-08-18T21:07:37.299Z,24.57
2022-08-18T21:09:40.962Z,24.56
2022-08-18T21:11:46.988Z,24.57
2022-08-18T21:13:52.959Z,24.55
2022-08-18T21:15:57.149Z,24.54
2022-08-18T21:18:01.992Z,24.52
2022-08-18T21:20:08.065Z,24.51
2022-08-18T21:22:11.996Z,24.50
2022-08-18T21:24:24.083Z,24.48
2022-08-18T21:26:28.436Z,24.44
2022-08-18T21:28:34.656Z,24.42
2022-08-18T21:30:38.003Z,24.41
2022-08-18T21:32:41.303Z,24.40
2022-08-18T21:34:45.531Z,24.41
2022-08-18T21:36:53.531Z,24.40
2022-08-18T21:39:06.240Z,24.39
2022-08-18T21:41:14.713Z,24.38
2022-08-18T21:43:36.289Z,24.36
2022-08-18T21:45:49.444Z,24.32
2022-08-18T21:47:56.536Z,24.31
2022-08-18T21:50:02.067Z,24.28
2022-08-18T21:52:05.392Z,24.28
2022-08-18T21:54:09.703Z,24.28
2022-08-18T21:56:23.239Z,24.25
2022-08-18T21:58:33.939Z,24.23
2022-08-18T22:00:38.939Z,24.20
2022-08-18T22:02:42.582Z,24.18
2022-08-18T22:04:47.242Z,24.18
2022-08-18T22:06:53.204Z,24.16
2022-08-18T22:08:59.910Z,24.14
2022-08-18T22:11:59.713Z,24.10
2022-08-18T22:13:59.738Z,24.04
2022-08-18T22:16:28.131Z,24.01
2022-08-18T22:18:36.194Z,23.98
2022-08-18T22:20:46.352Z,23.96
2022-08-18T22:23:06.975Z,23.93
2022-08-18T22:25:13.026Z,23.92
2022-08-18T22:27:21.105Z,23.90
2022-08-18T22:29:32.535Z,23.87
2022-08-18T22:31:38.229Z,23.84
2022-08-18T22:33:41.599Z,23.83
2022-08-18T22:35:45.015Z,23.81
2022-08-18T22:37:50.820Z,23.79
2022-08-18T22:39:56.049Z,23.77
2022-08-18T22:41:59.975Z,23.73
2022-08-18T22:44:05.458Z,23.73
2022-08-18T22:46:11.024Z,23.73
2022-08-18T22:48:14.274Z,23.70
2022-08-18T22:50:17.382Z,23.70
2022-08-18T22:52:29.919Z,23.69
2022-08-18T22:54:34.215Z,23.68
2022-08-18T22:56:38.107Z,23.67
2022-08-18T22:58:42.263Z,23.65
2022-08-18T23:00:47.093Z,23.64
2022-08-18T23:02:51.708Z,23.62
2022-08-18T23:04:54.890Z,23.61
2022-08-18T23:06:58.943Z,23.60
2022-08-18T23:09:02.473Z,23.58
2022-08-18T23:11:06.438Z,23.55
2022-08-18T23:13:09.551Z,23.54
2022-08-18T23:15:12.842Z,23.52
2022-08-18T23:17:16.102Z,23.49
2022-08-18T23:19:21.694Z,23.48
2022-08-18T23:21:34.132Z,23.47
2022-08-18T23:23:38.868Z,23.43
2022-08-18T23:25:41.907Z,23.41
2022-08-18T23:27:44.960Z,23.41
2022-08-18T23:29:48.723Z,23.39
2022-08-18T23:31:52.440Z,23.39
2022-08-18T23:33:55.463Z,23.38
2022-08-18T23:36:00.385Z,23.36
2022-08-18T23:38:03.469Z,23.35
2022-08-18T23:40:08.056Z,23.32
2022-08-18T23:42:13.228Z,23.30
2022-08-18T23:44:16.325Z,23.26
2022-08-18T23:46:22.132Z,23.25
2022-08-18T23:48:25.250Z,23.23
2022-08-18T23:50:29.577Z,23.22
2022-08-18T23:52:33.956Z,23.21
2022-08-18T23:54:37.491Z,23.19
2022-08-18T23:56:40.573Z,23.17
2022-08-18T23:58:45.517Z,23.15
